Time;durP1;ratioP1;P1;durP2;ratioP2;P2;SDS_P1;SDS_P2;PMS_P1;PMS_P2;Temp;Humidity;BMP_temperature;BMP_pressure;BME280_temperature;BME280_humidity;BME280_pressure;Samples;Min_cycle;Max_cycle;Signal;HPM_P1;HPM_P2
2022/07/19 00:00:34;;;;;;;;;;;;;;;23.00;100.00;98980.56;5075220;28;20303;-79
2022/07/19 00:03:01;;;;;;;;;;;;;;;23.21;100.00;98990.53;5074610;28;20063;-79
2022/07/19 00:05:28;;;;;;;;;;;;;;;23.21;100.00;98987.66;5072950;28;19932;-79
2022/07/19 00:07:55;;;;;;;;;;;;;;;22.92;100.00;98979.47;5106206;28;19975;-79
2022/07/19 00:10:23;;;;;;;;;;;;;;;22.86;100.00;98988.00;5089502;28;20069;-79
2022/07/19 00:12:50;;;;;;;;;;;;;;;22.79;100.00;98982.78;5054430;28;19970;-79
2022/07/19 00:15:17;;;;;;;;;;;;;;;22.52;100.00;98983.34;5071710;28;19967;-79
2022/07/19 00:17:45;;;;;;;;;;;;;;;22.75;100.00;98981.47;5072163;28;19925;-79
2022/07/19 00:20:14;;;;;;;;;;;;;;;22.21;100.00;98983.34;5073367;28;20027;-79
2022/07/19 00:22:41;;;;;;;;;;;;;;;22.69;100.00;98969.22;5073826;28;20287;-79
2022/07/19 00:25:09;;;;;;;;;;;;;;;23.05;100.00;98974.13;5074783;28;19924;-79
2022/07/19 00:27:36;;;;;;;;;;;;;;;23.13;100.00;98965.88;5074879;28;19924;-79
2022/07/19 00:30:04;;;;;;;;;;;;;;;23.06;100.00;98970.78;5073789;28;19931;-79
2022/07/19 00:32:31;;;;;;;;;;;;;;;22.20;100.00;98967.56;5073939;28;19936;-79
2022/07/19 00:34:59;;;;;;;;;;;;;;;22.44;100.00;98973.72;5057177;28;19924;-79
2022/07/19 00:37:26;;;;;;;;;;;;;;;22.38;100.00;98974.94;5074580;28;19932;-79
2022/07/19 00:39:53;;;;;;;;;;;;;;;22.67;100.00;98969.75;5074591;28;19928;-79
2022/07/19 00:42:21;;;;;;;;;;;;;;;22.82;100.00;98970.38;5074543;28;19924;-79
2022/07/19 00:44:48;;;;;;;;;;;;;;;22.83;100.00;98966.22;5074388;28;19946;-79
2022/07/19 00:47:15;;;;;;;;;;;;;;;22.76;100.00;98975.25;5074574;28;19925;-79
2022/07/19 00:49:42;;;;;;;;;;;;;;;22.90;100.00;98960.06;5074489;28;20295;-79
2022/07/19 00:52:09;;;;;;;;;;;;;;;21.89;100.00;98980.97;5090315;28;19977;-79
2022/07/19 00:54:39;;;;;;;;;;;;;;;22.29;100.00;98973.06;5073070;28;20011;-79
2022/07/19 00:57:07;;;;;;;;;;;;;;;22.10;100.00;98968.25;5074341;28;19924;-79
2022/07/19 00:59:34;;;;;;;;;;;;;;;22.30;100.00;98968.94;5074129;28;20019;-79
2022/07/19 01:02:01;;;;;;;;;;;;;;;22.38;100.00;98970.03;5073137;28;19928;-79
2022/07/19 01:04:28;;;;;;;;;;;;;;;22.31;100.00;98972.56;5074070;28;19990;-79
2022/07/19 01:06:55;;;;;;;;;;;;;;;21.53;100.00;98978.75;5074219;28;20431;-79
2022/07/19 01:09:23;;;;;;;;;;;;;;;21.24;100.00;98979.69;5056333;28;19924;-79
2022/07/19 01:11:51;;;;;;;;;;;;;;;21.81;100.00;98977.78;5072870;28;19935;-79
2022/07/19 01:14:18;;;;;;;;;;;;;;;21.80;100.00;98975.44;5072637;28;20017;-79
2022/07/19 01:16:45;;;;;;;;;;;;;;;22.12;100.00;98968.50;5073937;28;19925;-79
2022/07/19 01:19:13;;;;;;;;;;;;;;;22.15;100.00;98961.81;5073869;28;19932;-79
2022/07/19 01:21:40;;;;;;;;;;;;;;;21.47;100.00;98964.47;5072507;28;19955;-79
2022/07/19 01:24:08;;;;;;;;;;;;;;;21.78;100.00;98960.97;5073656;28;20045;-79
2022/07/19 01:26:36;;;;;;;;;;;;;;;21.60;100.00;98950.66;5070762;28;20399;-79
2022/07/19 01:29:04;;;;;;;;;;;;;;;21.74;100.00;98960.34;5072326;28;19929;-79
2022/07/19 01:31:31;;;;;;;;;;;;;;;21.90;100.00;98956.94;5072442;28;19932;-79
2022/07/19 01:33:58;;;;;;;;;;;;;;;21.86;100.00;98950.69;5072480;28;20272;-79
2022/07/19 01:36:25;;;;;;;;;;;;;;;21.61;100.00;98952.22;5073574;28;19925;-79
2022/07/19 01:38:53;;;;;;;;;;;;;;;21.02;100.00;98951.78;5072225;28;20050;-79
2022/07/19 01:41:20;;;;;;;;;;;;;;;20.47;100.00;98959.50;5073625;28;20292;-79
2022/07/19 01:43:47;;;;;;;;;;;;;;;21.25;100.00;98959.31;5073292;28;20360;-79
2022/07/19 01:46:15;;;;;;;;;;;;;;;21.40;100.00;98953.56;5073382;28;19925;-79
2022/07/19 01:48:42;;;;;;;;;;;;;;;21.69;100.00;98953.31;5072212;28;19928;-79
2022/07/19 01:51:09;;;;;;;;;;;;;;;21.81;100.00;98942.91;5072643;28;19951;-79
2022/07/19 01:53:36;;;;;;;;;;;;;;;21.45;100.00;98949.97;5086799;28;19968;-79
2022/07/19 01:56:03;;;;;;;;;;;;;;;21.66;100.00;98937.28;5071369;28;20398;-79
2022/07/19 01:58:31;;;;;;;;;;;;;;;21.50;100.00;98935.03;5071311;28;19924;-79
2022/07/19 02:01:01;;;;;;;;;;;;;;;21.36;100.00;98935.91;5054167;28;19925;-79
2022/07/19 02:03:28;;;;;;;;;;;;;;;21.26;100.00;98926.75;5071978;28;20383;-79
2022/07/19 02:05:55;;;;;;;;;;;;;;;21.46;100.00;98933.72;5054283;28;19925;-79
2022/07/19 02:08:22;;;;;;;;;;;;;;;20.86;100.00;98929.59;5072331;28;20018;-79
2022/07/19 02:10:50;;;;;;;;;;;;;;;21.18;100.00;98933.38;5055326;28;19925;-79
2022/07/19 02:13:18;;;;;;;;;;;;;;;21.38;100.00;98933.38;5071794;28;20435;-79
2022/07/19 02:15:45;;;;;;;;;;;;;;;21.38;100.00;98939.06;5073034;28;20017;-79
2022/07/19 02:18:14;;;;;;;;;;;;;;;21.47;100.00;98941.72;5071882;28;19939;-79
2022/07/19 02:20:41;;;;;;;;;;;;;;;21.46;100.00;98928.03;5072472;28;19932;-79
2022/07/19 02:23:09;;;;;;;;;;;;;;;21.56;100.00;98933.03;5071776;28;19990;-79
2022/07/19 02:25:36;;;;;;;;;;;;;;;21.65;100.00;98930.03;5073020;28;19925;-79
2022/07/19 02:28:03;;;;;;;;;;;;;;;21.32;100.00;98919.09;5071428;28;20303;-79
2022/07/19 02:30:30;;;;;;;;;;;;;;;21.10;100.00;98921.66;5072904;28;19931;-79
2022/07/19 02:32:57;;;;;;;;;;;;;;;21.16;100.00;98916.03;5072891;28;19961;-79
2022/07/19 02:35:25;;;;;;;;;;;;;;;21.41;100.00;98926.69;5072766;28;19971;-79
2022/07/19 02:37:52;;;;;;;;;;;;;;;21.20;100.00;98917.38;5072827;28;20019;-79
2022/07/19 02:40:19;;;;;;;;;;;;;;;21.51;100.00;98918.78;5071679;28;20011;-79
2022/07/19 02:42:46;;;;;;;;;;;;;;;20.85;100.00;98921.56;5072633;28;20383;-79
2022/07/19 02:45:14;;;;;;;;;;;;;;;20.32;100.00;98924.69;5072853;28;19925;-79
2022/07/19 02:47:43;;;;;;;;;;;;;;;20.45;100.00;98922.31;5073189;28;20013;-79
2022/07/19 02:50:10;;;;;;;;;;;;;;;21.01;100.00;98912.50;5071405;28;19989;-79
2022/07/19 02:52:37;;;;;;;;;;;;;;;21.31;100.00;98917.53;5071597;28;19970;-79
2022/07/19 02:55:05;;;;;;;;;;;;;;;21.20;100.00;98905.25;5071253;28;19929;-79
2022/07/19 02:57:32;;;;;;;;;;;;;;;21.19;100.00;98903.69;5071539;28;20174;-79
2022/07/19 02:59:59;;;;;;;;;;;;;;;21.33;100.00;98897.13;5071300;28;20405;-79
2022/07/19 03:02:26;;;;;;;;;;;;;;;21.68;100.00;98894.13;5072678;28;19932;-79
2022/07/19 03:04:53;;;;;;;;;;;;;;;21.35;100.00;98894.56;5071291;28;19936;-79
2022/07/19 03:07:21;;;;;;;;;;;;;;;20.62;100.00;98894.94;5071341;28;20401;-79
2022/07/19 03:09:48;;;;;;;;;;;;;;;20.17;100.00;98891.97;5072356;28;19928;-79
2022/07/19 03:12:15;;;;;;;;;;;;;;;20.58;100.00;98890.75;5054870;28;19925;-79
2022/07/19 03:14:42;;;;;;;;;;;;;;;20.90;100.00;98883.97;5071156;28;19925;-79
2022/07/19 03:17:09;;;;;;;;;;;;;;;21.13;100.00;98882.94;5072549;28;19924;-79
2022/07/19 03:19:37;;;;;;;;;;;;;;;21.21;100.00;98886.94;5072326;28;19940;-79
2022/07/19 03:22:04;;;;;;;;;;;;;;;21.22;100.00;98883.59;5072423;28;19928;-79
2022/07/19 03:24:31;;;;;;;;;;;;;;;21.34;100.00;98871.06;5070953;28;19924;-79
2022/07/19 03:26:59;;;;;;;;;;;;;;;21.22;100.00;98868.59;5072370;28;20022;-79
2022/07/19 03:29:26;;;;;;;;;;;;;;;20.57;100.00;98877.84;5054572;28;20023;-79
2022/07/19 03:31:55;;;;;;;;;;;;;;;20.85;100.00;98881.81;5071192;28;19928;-79
2022/07/19 03:34:22;;;;;;;;;;;;;;;20.49;100.00;98868.94;5074670;28;19925;-79
2022/07/19 03:36:49;;;;;;;;;;;;;;;20.91;100.00;98874.16;5075963;28;19994;-79
2022/07/19 03:39:17;;;;;;;;;;;;;;;20.50;100.00;98886.75;5074541;28;19928;-79
2022/07/19 03:41:44;;;;;;;;;;;;;;;20.86;100.00;98874.84;5075788;28;20022;-79
2022/07/19 03:44:11;;;;;;;;;;;;;;;20.67;100.00;98874.38;5058154;28;19924;-79
2022/07/19 03:46:38;;;;;;;;;;;;;;;20.44;100.00;98877.41;5075805;28;20342;-79
2022/07/19 03:49:05;;;;;;;;;;;;;;;20.68;100.00;98870.25;5074379;28;20028;-79
2022/07/19 03:51:32;;;;;;;;;;;;;;;20.10;100.00;98864.75;5075563;28;20398;-79
2022/07/19 03:53:59;;;;;;;;;;;;;;;20.73;100.00;98854.56;5074250;28;20364;-79
2022/07/19 03:56:26;;;;;;;;;;;;;;;21.05;100.00;98856.28;5075540;28;19946;-79
2022/07/19 03:58:53;;;;;;;;;;;;;;;21.22;100.00;98848.69;5075504;28;19928;-79
2022/07/19 04:01:21;;;;;;;;;;;;;;;21.28;100.00;98843.88;5074148;28;20383;-79
2022/07/19 04:03:49;;;;;;;;;;;;;;;21.31;100.00;98832.28;5075284;28;19931;-79
2022/07/19 04:06:16;;;;;;;;;;;;;;;20.51;100.00;98848.59;5107928;28;19932;-79
2022/07/19 04:08:43;;;;;;;;;;;;;;;21.00;100.00;98845.63;5073869;28;19928;-79
2022/07/19 04:11:10;;;;;;;;;;;;;;;21.08;100.00;98841.84;5075326;28;20291;-79
2022/07/19 04:13:37;;;;;;;;;;;;;;;21.21;100.00;98836.56;5075477;28;19925;-79
2022/07/19 04:16:05;;;;;;;;;;;;;;;20.50;100.00;98836.47;5073953;28;19928;-79
2022/07/19 04:18:32;;;;;;;;;;;;;;;20.36;100.00;98837.31;5075049;28;19928;-79
2022/07/19 04:20:59;;;;;;;;;;;;;;;20.33;100.00;98829.00;5074858;28;19932;-79
2022/07/19 04:23:27;;;;;;;;;;;;;;;20.93;100.00;98840.38;5073700;28;19973;-79
2022/07/19 04:25:54;;;;;;;;;;;;;;;21.21;100.00;98827.25;5075017;28;19925;-79
2022/07/19 04:28:22;;;;;;;;;;;;;;;21.33;100.00;98826.88;5073798;28;19931;-79
2022/07/19 04:30:49;;;;;;;;;;;;;;;21.42;100.00;98828.75;5073661;28;19929;-79
2022/07/19 04:33:17;;;;;;;;;;;;;;;21.14;100.00;98837.00;5073624;28;20019;-79
2022/07/19 04:35:45;;;;;;;;;;;;;;;21.31;100.00;98815.22;5074817;28;19928;-79
2022/07/19 04:38:12;;;;;;;;;;;;;;;20.65;100.00;98825.81;5074685;28;19928;-79
2022/07/19 04:40:39;;;;;;;;;;;;;;;20.05;100.00;98819.28;5107321;28;19924;-79
2022/07/19 04:43:06;;;;;;;;;;;;;;;20.30;100.00;98829.97;5073551;28;19924;-79
2022/07/19 04:45:34;;;;;;;;;;;;;;;20.83;100.00;98825.53;5073018;28;19928;-79
2022/07/19 04:48:01;;;;;;;;;;;;;;;21.13;100.00;98815.56;5073319;28;20477;-79
2022/07/19 04:50:28;;;;;;;;;;;;;;;21.18;100.00;98811.22;5089986;28;19924;-79
2022/07/19 04:52:55;;;;;;;;;;;;;;;21.30;100.00;98812.88;5074358;28;19924;-79
2022/07/19 04:55:22;;;;;;;;;;;;;;;21.33;100.00;98814.72;5074455;28;20042;-79
2022/07/19 04:57:49;;;;;;;;;;;;;;;21.41;100.00;98813.00;5073157;28;19947;-79
2022/07/19 05:00:16;;;;;;;;;;;;;;;21.31;100.00;98805.94;5073040;28;19924;-79
2022/07/19 05:02:43;;;;;;;;;;;;;;;21.47;100.00;98799.63;5074250;28;19928;-79
2022/07/19 05:05:12;;;;;;;;;;;;;;;21.59;100.00;98804.13;5074222;28;20013;-79
2022/07/19 05:07:39;;;;;;;;;;;;;;;21.72;100.00;98798.78;5074038;28;19924;-79
2022/07/19 05:10:07;;;;;;;;;;;;;;;21.46;100.00;98795.22;5106629;28;19924;-79
2022/07/19 05:12:34;;;;;;;;;;;;;;;21.53;100.00;98791.13;5072849;28;20295;-79
2022/07/19 05:15:01;;;;;;;;;;;;;;;20.87;100.00;98803.38;5073811;28;19932;-79
2022/07/19 05:17:28;;;;;;;;;;;;;;;21.06;100.00;98801.03;5074000;28;19929;-79
2022/07/19 05:19:55;;;;;;;;;;;;;;;21.23;100.00;98801.97;5072733;28;19924;-79
2022/07/19 05:22:24;;;;;;;;;;;;;;;21.61;100.00;98781.66;5073571;28;19931;-79
2022/07/19 05:24:52;;;;;;;;;;;;;;;21.83;100.00;98787.53;5072670;28;19929;-79
2022/07/19 05:27:20;;;;;;;;;;;;;;;21.97;100.00;98789.44;5073798;28;19925;-79
2022/07/19 05:29:47;;;;;;;;;;;;;;;22.16;100.00;98786.97;5089196;28;20429;-79
2022/07/19 05:32:14;;;;;;;;;;;;;;;22.24;100.00;98782.34;5072630;28;20019;-79
2022/07/19 05:34:41;;;;;;;;;;;;;;;21.82;100.00;98785.97;5106310;28;19931;-79
2022/07/19 05:37:08;;;;;;;;;;;;;;;22.19;100.00;98777.44;5070487;28;20342;-79
2022/07/19 05:39:35;;;;;;;;;;;;;;;21.86;100.00;98785.72;5069280;28;20383;-79
2022/07/19 05:42:03;;;;;;;;;;;;;;;21.55;100.00;98780.84;5086576;28;19928;-79
2022/07/19 05:44:31;;;;;;;;;;;;;;;22.14;100.00;98784.63;5070970;28;20318;-79
2022/07/19 05:47:01;;;;;;;;;;;;;;;22.65;100.00;98767.31;5102508;28;19925;-80
2022/07/19 05:49:28;;;;;;;;;;;;;;;22.30;100.00;98778.25;5070151;28;19924;-78
2022/07/19 05:51:56;;;;;;;;;;;;;;;22.81;100.00;98771.50;5070915;28;19924;-79
2022/07/19 05:54:23;;;;;;;;;;;;;;;23.21;100.00;98771.06;5070721;28;19925;-79
2022/07/19 05:56:50;;;;;;;;;;;;;;;23.51;100.00;98766.44;5072593;28;20019;-79
2022/07/19 05:59:20;;;;;;;;;;;;;;;23.34;100.00;98765.66;5069757;28;19933;-78
2022/07/19 06:01:49;;;;;;;;;;;;;;;23.60;100.00;98765.44;5095709;28;19924;-78
2022/07/19 06:04:16;;;;;;;;;;;;;;;23.90;100.00;98763.59;5054917;28;20031;-79
2022/07/19 06:06:44;;;;;;;;;;;;;;;24.04;100.00;98765.38;5073044;28;19978;-79
2022/07/19 06:09:12;;;;;;;;;;;;;;;23.99;100.00;98763.34;5071509;28;20387;-79
2022/07/19 06:11:40;;;;;;;;;;;;;;;24.40;100.00;98752.84;5072806;28;20001;-79
2022/07/19 06:14:08;;;;;;;;;;;;;;;24.26;100.00;98760.41;5071513;28;20291;-79
2022/07/19 06:16:38;;;;;;;;;;;;;;;24.70;100.00;98765.19;5072924;28;19924;-79
2022/07/19 06:19:05;;;;;;;;;;;;;;;24.37;100.00;98766.06;5103559;28;19924;-79
2022/07/19 06:21:33;;;;;;;;;;;;;;;24.68;100.00;98764.94;5070873;28;19924;-79
2022/07/19 06:24:00;;;;;;;;;;;;;;;24.78;100.00;98766.19;5071618;28;19925;-79
2022/07/19 06:26:27;;;;;;;;;;;;;;;25.09;100.00;98765.75;5071474;28;19977;-79
2022/07/19 06:28:54;;;;;;;;;;;;;;;25.02;100.00;98763.47;5071656;28;19928;-79
2022/07/19 06:31:22;;;;;;;;;;;;;;;25.17;100.00;98772.47;5073136;28;19948;-79
2022/07/19 06:33:50;;;;;;;;;;;;;;;25.29;100.00;98771.09;5072741;28;19960;-79
2022/07/19 06:36:18;;;;;;;;;;;;;;;25.20;100.00;98774.28;5088745;28;19924;-79
2022/07/19 06:38:47;;;;;;;;;;;;;;;25.63;100.00;98763.03;5071570;28;19973;-79
2022/07/19 06:41:31;;;;;;;;;;;;;;;25.96;100.00;98759.88;5072534;28;19930;-79
2022/07/19 06:44:18;;;;;;;;;;;;;;;25.43;100.00;98757.75;5058314;28;20022;-79
2022/07/19 06:46:45;;;;;;;;;;;;;;;25.61;100.00;98751.38;5106072;28;19924;-79
2022/07/19 06:49:16;;;;;;;;;;;;;;;26.09;100.00;98740.78;5073438;28;20279;-79
2022/07/19 06:51:43;;;;;;;;;;;;;;;26.46;100.00;98735.13;5072442;28;19924;-79
2022/07/19 06:54:10;;;;;;;;;;;;;;;26.57;100.00;98727.72;5073593;28;19931;-79
2022/07/19 06:56:38;;;;;;;;;;;;;;;26.55;100.00;98718.88;5072283;28;19931;-79
2022/07/19 06:59:05;;;;;;;;;;;;;;;26.95;100.00;98717.81;5073598;28;20069;-79
2022/07/19 07:01:32;;;;;;;;;;;;;;;27.53;100.00;98715.88;5073328;28;20331;-79
2022/07/19 07:03:59;;;;;;;;;;;;;;;28.04;100.00;98726.72;5072219;28;19924;-79
2022/07/19 07:06:27;;;;;;;;;;;;;;;29.30;100.00;98710.19;5072105;28;19925;-79
2022/07/19 07:08:54;;;;;;;;;;;;;;;30.37;100.00;98705.53;5076834;28;19924;-79
2022/07/19 07:11:21;;;;;;;;;;;;;;;31.52;100.00;98691.75;5075852;28;20280;-79
2022/07/19 07:13:48;;;;;;;;;;;;;;;32.48;100.00;98689.41;5075970;28;19924;-80
2022/07/19 07:16:15;;;;;;;;;;;;;;;32.78;100.00;98683.50;5075669;28;19967;-79
2022/07/19 07:18:43;;;;;;;;;;;;;;;33.62;100.00;98683.81;5109745;28;20441;-80
2022/07/19 07:21:10;;;;;;;;;;;;;;;34.38;100.00;98687.63;5076942;28;19947;-80
2022/07/19 07:23:38;;;;;;;;;;;;;;;34.88;100.00;98674.47;5077047;28;19959;-80
2022/07/19 07:26:05;;;;;;;;;;;;;;;35.28;100.00;98674.84;5076833;28;19932;-80
2022/07/19 07:28:32;;;;;;;;;;;;;;;35.09;100.00;98677.66;5076880;28;19925;-80
2022/07/19 07:31:00;;;;;;;;;;;;;;;35.25;100.00;98675.31;5076683;28;20384;-80
2022/07/19 07:33:27;;;;;;;;;;;;;;;35.79;100.00;98663.03;5075627;28;19925;-79
2022/07/19 07:35:54;;;;;;;;;;;;;;;36.58;100.00;98663.38;5076940;28;19924;-80
2022/07/19 07:38:21;;;;;;;;;;;;;;;37.42;100.00;98658.03;5075511;28;19924;-80
2022/07/19 07:40:48;;;;;;;;;;;;;;;37.30;100.00;98660.06;5076589;28;20379;-79
2022/07/19 07:43:16;;;;;;;;;;;;;;;35.39;100.00;98670.66;5076742;28;20280;-79
2022/07/19 07:45:43;;;;;;;;;;;;;;;35.55;100.00;98658.19;5063848;28;20399;-80
2022/07/19 07:48:10;;;;;;;;;;;;;;;35.37;100.00;98673.44;5076449;28;19924;-80
2022/07/19 07:50:37;;;;;;;;;;;;;;;35.91;100.00;98669.81;5076510;28;20018;-80
2022/07/19 07:53:04;;;;;;;;;;;;;;;36.27;100.00;98661.03;5076207;28;20388;-80
2022/07/19 07:55:37;;;;;;;;;;;;;;;36.00;100.00;98665.41;5076098;28;19928;-80
2022/07/19 07:58:19;;;;;;;;;;;;;;;36.64;100.00;98660.91;5076052;28;19963;-80
2022/07/19 08:00:46;;;;;;;;;;;;;;;37.23;100.00;98652.28;5075652;28;19931;-80
2022/07/19 08:03:14;;;;;;;;;;;;;;;37.26;100.00;98657.63;5076399;28;20423;-80
2022/07/19 08:05:41;;;;;;;;;;;;;;;37.39;100.00;98654.22;5075890;28;20015;-81
2022/07/19 08:08:08;;;;;;;;;;;;;;;37.86;100.00;98664.16;5075004;28;19928;-81
2022/07/19 08:10:35;;;;;;;;;;;;;;;37.77;100.00;98657.00;5075999;28;19936;-81
2022/07/19 08:13:03;;;;;;;;;;;;;;;38.42;100.00;98647.69;5075006;28;19924;-81
2022/07/19 08:15:34;;;;;;;;;;;;;;;38.76;100.00;98644.19;5075689;28;20015;-81
2022/07/19 08:18:01;;;;;;;;;;;;;;;38.43;100.00;98640.47;5074164;28;19925;-81
2022/07/19 08:20:28;;;;;;;;;;;;;;;37.93;100.00;98654.44;5073795;28;19924;-81
2022/07/19 08:22:55;;;;;;;;;;;;;;;36.91;100.00;98647.75;5075664;28;19929;-80
2022/07/19 08:25:22;;;;;;;;;;;;;;;36.57;100.00;98647.28;5074608;28;20318;-80
2022/07/19 08:27:49;;;;;;;;;;;;;;;37.70;100.00;98643.38;5091633;28;20380;-81
2022/07/19 08:30:16;;;;;;;;;;;;;;;38.66;100.00;98625.25;5075694;28;19931;-80
2022/07/19 08:32:44;;;;;;;;;;;;;;;39.40;100.00;98636.78;5091388;28;20272;-81
2022/07/19 08:35:11;;;;;;;;;;;;;;;39.59;97.85;98627.03;5075714;28;19924;-81
2022/07/19 08:37:38;;;;;;;;;;;;;;;39.46;91.75;98619.66;5074491;28;19924;-80
2022/07/19 08:40:05;;;;;;;;;;;;;;;39.70;92.17;98622.56;5075648;28;19928;-81
2022/07/19 08:42:32;;;;;;;;;;;;;;;39.19;88.59;98621.47;5074677;28;19954;-81
2022/07/19 08:45:01;;;;;;;;;;;;;;;39.31;94.78;98628.88;5075668;28;20396;-81
2022/07/19 08:47:29;;;;;;;;;;;;;;;40.45;93.11;98623.63;5075683;28;19932;-81
2022/07/19 08:49:57;;;;;;;;;;;;;;;40.38;89.83;98621.00;5057678;28;20026;-81
2022/07/19 08:52:26;;;;;;;;;;;;;;;40.52;89.50;98615.97;5075466;28;19924;-81
2022/07/19 08:54:54;;;;;;;;;;;;;;;39.85;90.39;98616.25;5074383;28;19924;-81
2022/07/19 09:00:07;;;;;;;;;;;;;;;39.47;82.82;98597.03;5054384;28;20401;-81
2022/07/19 09:02:38;;;;;;;;;;;;;;;39.63;86.82;98603.16;5055163;28;20686;-81
2022/07/19 09:05:10;;;;;;;;;;;;;;;40.00;90.31;98609.84;5054936;28;19939;-81
2022/07/19 09:07:38;;;;;;;;;;;;;;;40.47;88.15;98600.34;5054960;28;19925;-81
2022/07/19 09:10:16;;;;;;;;;;;;;;;40.89;81.81;98594.06;5085324;28;19928;-81
2022/07/19 09:13:00;;;;;;;;;;;;;;;41.37;81.54;98587.25;5053577;28;19929;-81
2022/07/19 09:15:46;;;;;;;;;;;;;;;41.72;81.81;98584.81;5070011;28;20023;-81
2022/07/19 09:18:17;;;;;;;;;;;;;;;41.14;83.00;98590.38;5053155;28;19964;-81
2022/07/19 09:20:44;;;;;;;;;;;;;;;41.17;82.21;98580.28;5053663;28;21457;-81
2022/07/19 09:23:12;;;;;;;;;;;;;;;41.23;86.04;98589.41;5037110;28;20027;-81
2022/07/19 09:25:41;;;;;;;;;;;;;;;41.16;82.43;98575.81;5054521;28;19931;-81
2022/07/19 09:28:09;;;;;;;;;;;;;;;40.86;81.21;98574.84;5054560;28;19928;-79
2022/07/19 09:30:38;;;;;;;;;;;;;;;41.35;83.58;98581.28;5053675;28;19968;-81
2022/07/19 09:33:12;;;;;;;;;;;;;;;41.70;81.43;98567.09;5069691;28;19931;-81
2022/07/19 09:35:47;;;;;;;;;;;;;;;41.72;80.15;98561.34;5053488;28;19931;-81
2022/07/19 09:38:28;;;;;;;;;;;;;;;41.99;81.57;98555.47;5036569;28;19963;-81
2022/07/19 09:41:15;;;;;;;;;;;;;;;41.66;77.99;98552.22;5054707;28;19925;-81
2022/07/19 09:43:52;;;;;;;;;;;;;;;41.70;79.31;98560.50;5054454;28;20340;-81
2022/07/19 09:46:49;;;;;;;;;;;;;;;41.24;78.24;98546.97;5086667;28;19925;-81
2022/07/19 09:49:17;;;;;;;;;;;;;;;41.28;77.76;98549.38;5053281;28;20003;-82
2022/07/19 09:51:50;;;;;;;;;;;;;;;41.18;79.01;98549.56;5054356;28;19924;-82
2022/07/19 09:54:25;;;;;;;;;;;;;;;41.19;78.21;98545.22;5053343;28;20241;-82
2022/07/19 09:56:53;;;;;;;;;;;;;;;40.75;76.35;98536.81;5036574;28;19928;-81
2022/07/19 09:59:21;;;;;;;;;;;;;;;40.84;78.35;98533.72;5054190;28;19968;-81
2022/07/19 10:01:50;;;;;;;;;;;;;;;40.14;81.77;98537.59;5054228;28;19932;-81
2022/07/19 10:04:19;;;;;;;;;;;;;;;40.42;77.53;98521.72;5052986;28;19974;-81
2022/07/19 10:06:47;;;;;;;;;;;;;;;39.68;75.90;98520.13;5053791;28;19929;-80
2022/07/19 10:09:16;;;;;;;;;;;;;;;39.74;77.37;98517.56;5053941;28;19925;-80
2022/07/19 10:11:43;;;;;;;;;;;;;;;39.95;77.16;98503.56;5053819;28;19960;-80
2022/07/19 10:14:11;;;;;;;;;;;;;;;39.61;79.02;98503.63;5053989;28;19925;-81
2022/07/19 10:16:42;;;;;;;;;;;;;;;39.56;78.73;98498.91;5054220;28;19925;-80
2022/07/19 10:19:29;;;;;;;;;;;;;;;38.88;76.03;98507.78;5053800;28;19924;-80
2022/07/19 10:21:57;;;;;;;;;;;;;;;39.05;76.50;98500.84;5053807;28;19925;-81
2022/07/19 10:24:43;;;;;;;;;;;;;;;38.51;74.72;98500.94;5036390;28;19932;-80
2022/07/19 10:27:11;;;;;;;;;;;;;;;38.30;75.49;98492.25;5069368;28;19925;-81
2022/07/19 10:29:38;;;;;;;;;;;;;;;37.65;75.53;98497.97;5053641;28;19979;-80
2022/07/19 10:32:06;;;;;;;;;;;;;;;38.72;74.20;98492.13;5068964;28;20008;-81
2022/07/19 10:34:34;;;;;;;;;;;;;;;38.95;74.64;98482.63;5058811;28;20344;-81
2022/07/19 10:37:02;;;;;;;;;;;;;;;38.68;73.06;98488.19;5073653;28;19924;-81
2022/07/19 10:39:33;;;;;;;;;;;;;;;39.00;74.76;98496.13;5073474;28;19925;-81
2022/07/19 10:42:12;;;;;;;;;;;;;;;38.34;78.73;98501.25;5073073;28;20378;-80
2022/07/19 10:44:55;;;;;;;;;;;;;;;38.63;75.01;98507.59;5077763;28;19924;-81
2022/07/19 10:47:22;;;;;;;;;;;;;;;37.67;77.03;98513.47;5110437;28;19924;-81
2022/07/19 10:49:49;;;;;;;;;;;;;;;38.22;78.31;98520.13;5077515;28;19924;-81
2022/07/19 10:52:26;;;;;;;;;;;;;;;37.94;75.13;98501.47;5077548;28;20015;-80
2022/07/19 10:55:12;;;;;;;;;;;;;;;38.44;76.47;98507.00;5076425;28;19925;-81
2022/07/19 10:57:39;;;;;;;;;;;;;;;38.02;74.09;98501.97;5075349;28;19924;-81
2022/07/19 11:00:28;;;;;;;;;;;;;;;37.37;72.78;98481.41;5077604;28;20291;-81
2022/07/19 11:03:16;;;;;;;;;;;;;;;36.82;74.45;98487.66;5077491;28;20023;-80
2022/07/19 11:05:51;;;;;;;;;;;;;;;37.93;73.09;98482.41;5076422;28;20392;-81
2022/07/19 11:08:18;;;;;;;;;;;;;;;38.25;74.41;98475.13;5093245;28;19960;-81
2022/07/19 11:10:46;;;;;;;;;;;;;;;38.53;78.21;98495.25;5077517;28;19976;-81
2022/07/19 11:13:15;;;;;;;;;;;;;;;38.35;72.18;98470.72;5077445;28;20249;-81
2022/07/19 11:15:53;;;;;;;;;;;;;;;38.08;73.04;98458.66;5076204;28;19931;-80
2022/07/19 11:18:20;;;;;;;;;;;;;;;38.17;73.12;98457.84;5076142;28;20303;-81
2022/07/19 11:20:47;;;;;;;;;;;;;;;38.64;73.85;98455.81;5077089;28;19925;-81
2022/07/19 11:23:19;;;;;;;;;;;;;;;38.51;72.50;98448.41;5109626;28;19924;-80
2022/07/19 11:25:46;;;;;;;;;;;;;;;38.58;74.43;98435.00;5077066;28;20460;-80
2022/07/19 11:28:23;;;;;;;;;;;;;;;38.07;72.67;98427.97;5076838;28;20027;-81
2022/07/19 11:30:51;;;;;;;;;;;;;;;38.60;74.71;98430.06;5083554;28;19929;-81
2022/07/19 11:33:19;;;;;;;;;;;;;;;38.10;72.96;98450.06;5076758;28;19924;-81
2022/07/19 11:35:56;;;;;;;;;;;;;;;38.64;71.83;98439.06;5092326;28;20036;-81
2022/07/19 11:38:33;;;;;;;;;;;;;;;39.10;73.59;98444.94;5108995;28;19971;-81
2022/07/19 11:41:00;;;;;;;;;;;;;;;38.96;73.15;98428.69;5076612;28;19933;-81
2022/07/19 11:43:28;;;;;;;;;;;;;;;38.91;72.18;98432.75;5076561;28;20433;-80
2022/07/19 11:45:55;;;;;;;;;;;;;;;38.81;71.24;98429.16;5076432;28;19924;-80
2022/07/19 11:48:26;;;;;;;;;;;;;;;38.38;70.94;98437.34;5076305;28;19932;-80
2022/07/19 11:51:02;;;;;;;;;;;;;;;38.55;70.66;98419.50;5109182;28;19978;-80
2022/07/19 11:53:29;;;;;;;;;;;;;;;39.31;75.15;98420.66;5075193;28;19932;-80
2022/07/19 11:56:15;;;;;;;;;;;;;;;38.84;70.28;98417.00;5075418;28;19924;-80
2022/07/19 11:58:43;;;;;;;;;;;;;;;38.68;70.22;98415.97;5075708;28;19952;-80
2022/07/19 12:01:10;;;;;;;;;;;;;;;39.02;68.89;98403.56;5107824;28;19931;-80
2022/07/19 12:03:37;;;;;;;;;;;;;;;38.66;71.17;98410.00;5076483;28;19928;-80
2022/07/19 12:06:06;;;;;;;;;;;;;;;38.62;72.61;98400.22;5058032;28;19929;-80
2022/07/19 12:08:39;;;;;;;;;;;;;;;38.39;73.72;98406.78;5075116;28;20352;-81
2022/07/19 12:11:23;;;;;;;;;;;;;;;39.16;70.97;98378.13;5076492;28;19931;-81
2022/07/19 12:13:51;;;;;;;;;;;;;;;39.46;71.76;98376.31;5076400;28;20007;-81
2022/07/19 12:16:18;;;;;;;;;;;;;;;39.19;69.14;98356.41;5076074;28;19991;-81
2022/07/19 12:18:51;;;;;;;;;;;;;;;39.43;70.35;98365.91;5075112;28;20073;-81
2022/07/19 12:21:19;;;;;;;;;;;;;;;38.74;67.42;98349.22;5074481;28;20362;-81
2022/07/19 12:24:05;;;;;;;;;;;;;;;38.76;68.29;98334.72;5091582;28;19939;-81
2022/07/19 12:26:32;;;;;;;;;;;;;;;38.70;68.15;98375.22;5074729;28;19931;-80
2022/07/19 12:29:18;;;;;;;;;;;;;;;39.46;70.65;98353.69;5074764;28;19928;-80
2022/07/19 12:31:45;;;;;;;;;;;;;;;38.71;69.70;98350.50;5058007;28;19960;-81
2022/07/19 12:34:13;;;;;;;;;;;;;;;38.48;71.82;98324.19;5058218;28;19932;-81
2022/07/19 12:36:40;;;;;;;;;;;;;;;38.32;68.61;98358.19;5074557;28;19967;-80
2022/07/19 12:39:18;;;;;;;;;;;;;;;38.29;68.35;98361.59;5091236;28;19982;-81
2022/07/19 12:42:03;;;;;;;;;;;;;;;38.68;67.13;98328.41;5074805;28;19925;-81
2022/07/19 12:44:31;;;;;;;;;;;;;;;38.67;69.07;98350.22;5108178;28;20015;-81
2022/07/19 12:46:58;;;;;;;;;;;;;;;38.60;68.59;98322.06;5074426;28;19928;-81
2022/07/19 12:49:44;;;;;;;;;;;;;;;39.19;67.41;98347.66;5074156;28;20268;-80
2022/07/19 12:52:11;;;;;;;;;;;;;;;39.41;66.95;98325.63;5075512;28;19931;-81